sensor_id;sensor_type;location;lat;lon;timestamp;P1;durP1;ratioP1;P2;durP2;ratioP2
16957;SDS011;8595;52.542;11.974;2022-08-21T00:01:24;5.10;;;2.10;;
16957;SDS011;8595;52.542;11.974;2022-08-21T00:03:55;5.32;;;2.17;;
16957;SDS011;8595;52.542;11.974;2022-08-21T00:06:22;7.60;;;2.22;;
16957;SDS011;8595;52.542;11.974;2022-08-21T00:08:49;11.35;;;2.97;;
16957;SDS011;8595;52.542;11.974;2022-08-21T00:11:16;5.15;;;2.20;;
16957;SDS011;8595;52.542;11.974;2022-08-21T00:13:43;4.28;;;2.28;;
16957;SDS011;8595;52.542;11.974;2022-08-21T00:16:10;6.07;;;2.72;;
16957;SDS011;8595;52.542;11.974;2022-08-21T00:18:37;7.15;;;2.53;;
16957;SDS011;8595;52.542;11.974;2022-08-21T00:21:05;6.32;;;2.47;;
16957;SDS011;8595;52.542;11.974;2022-08-21T00:23:32;4.90;;;2.28;;
16957;SDS011;8595;52.542;11.974;2022-08-21T00:26:00;4.45;;;2.28;;
16957;SDS011;8595;52.542;11.974;2022-08-21T00:28:27;6.15;;;2.33;;
16957;SDS011;8595;52.542;11.974;2022-08-21T00:30:53;7.60;;;2.35;;
16957;SDS011;8595;52.542;11.974;2022-08-21T00:33:21;3.90;;;1.92;;
16957;SDS011;8595;52.542;11.974;2022-08-21T00:35:48;6.80;;;2.20;;
16957;SDS011;8595;52.542;11.974;2022-08-21T00:38:16;5.97;;;2.60;;
16957;SDS011;8595;52.542;11.974;2022-08-21T00:40:45;5.32;;;2.03;;
16957;SDS011;8595;52.542;11.974;2022-08-21T00:43:15;7.22;;;2.17;;
16957;SDS011;8595;52.542;11.974;2022-08-21T00:45:45;6.68;;;1.92;;
16957;SDS011;8595;52.542;11.974;2022-08-21T00:48:11;5.35;;;2.30;;
16957;SDS011;8595;52.542;11.974;2022-08-21T00:50:40;5.80;;;1.90;;
16957;SDS011;8595;52.542;11.974;2022-08-21T00:53:14;4.95;;;2.10;;
16957;SDS011;8595;52.542;11.974;2022-08-21T00:55:43;6.45;;;2.22;;
16957;SDS011;8595;52.542;11.974;2022-08-21T00:58:11;4.90;;;1.85;;
16957;SDS011;8595;52.542;11.974;2022-08-21T01:00:40;4.95;;;2.42;;
16957;SDS011;8595;52.542;11.974;2022-08-21T01:03:09;6.60;;;2.20;;
16957;SDS011;8595;52.542;11.974;2022-08-21T01:05:38;5.35;;;2.35;;
16957;SDS011;8595;52.542;11.974;2022-08-21T01:08:05;6.53;;;2.25;;
16957;SDS011;8595;52.542;11.974;2022-08-21T01:10:35;3.70;;;1.98;;
16957;SDS011;8595;52.542;11.974;2022-08-21T01:13:03;5.50;;;2.25;;
16957;SDS011;8595;52.542;11.974;2022-08-21T01:15:32;4.03;;;1.85;;
16957;SDS011;8595;52.542;11.974;2022-08-21T01:18:01;6.07;;;2.10;;
16957;SDS011;8595;52.542;11.974;2022-08-21T01:20:29;6.80;;;2.30;;
16957;SDS011;8595;52.542;11.974;2022-08-21T01:22:57;8.45;;;2.42;;
16957;SDS011;8595;52.542;11.974;2022-08-21T01:25:24;7.38;;;2.72;;
16957;SDS011;8595;52.542;11.974;2022-08-21T01:27:51;4.85;;;1.95;;
16957;SDS011;8595;52.542;11.974;2022-08-21T01:30:18;3.55;;;1.90;;
16957;SDS011;8595;52.542;11.974;2022-08-21T01:32:48;4.43;;;2.00;;
16957;SDS011;8595;52.542;11.974;2022-08-21T01:35:16;3.75;;;1.95;;
16957;SDS011;8595;52.542;11.974;2022-08-21T01:37:44;7.30;;;2.40;;
16957;SDS011;8595;52.542;11.974;2022-08-21T01:40:13;6.00;;;2.17;;
16957;SDS011;8595;52.542;11.974;2022-08-21T01:42:43;5.45;;;2.35;;
16957;SDS011;8595;52.542;11.974;2022-08-21T01:45:11;10.18;;;2.65;;
16957;SDS011;8595;52.542;11.974;2022-08-21T01:47:39;5.00;;;2.42;;
16957;SDS011;8595;52.542;11.974;2022-08-21T01:50:07;5.03;;;2.25;;
16957;SDS011;8595;52.542;11.974;2022-08-21T01:52:36;5.65;;;2.15;;
16957;SDS011;8595;52.542;11.974;2022-08-21T01:55:03;7.70;;;2.78;;
16957;SDS011;8595;52.542;11.974;2022-08-21T01:57:33;6.75;;;2.00;;
16957;SDS011;8595;52.542;11.974;2022-08-21T01:59:59;7.07;;;2.60;;
16957;SDS011;8595;52.542;11.974;2022-08-21T02:02:26;7.25;;;2.95;;
16957;SDS011;8595;52.542;11.974;2022-08-21T02:04:53;12.55;;;3.20;;
16957;SDS011;8595;52.542;11.974;2022-08-21T02:07:19;8.00;;;2.65;;
16957;SDS011;8595;52.542;11.974;2022-08-21T02:09:46;5.85;;;2.50;;
16957;SDS011;8595;52.542;11.974;2022-08-21T02:12:13;4.75;;;2.60;;
16957;SDS011;8595;52.542;11.974;2022-08-21T02:14:41;4.88;;;2.22;;
16957;SDS011;8595;52.542;11.974;2022-08-21T02:17:08;6.03;;;2.33;;
16957;SDS011;8595;52.542;11.974;2022-08-21T02:19:35;4.88;;;2.85;;
16957;SDS011;8595;52.542;11.974;2022-08-21T02:22:03;4.90;;;2.30;;
16957;SDS011;8595;52.542;11.974;2022-08-21T02:24:30;5.07;;;2.40;;
16957;SDS011;8595;52.542;11.974;2022-08-21T02:26:56;4.95;;;2.72;;
16957;SDS011;8595;52.542;11.974;2022-08-21T02:29:23;8.27;;;2.70;;
16957;SDS011;8595;52.542;11.974;2022-08-21T02:31:51;8.55;;;3.00;;
16957;SDS011;8595;52.542;11.974;2022-08-21T02:34:18;7.95;;;2.58;;
16957;SDS011;8595;52.542;11.974;2022-08-21T02:36:44;7.53;;;2.53;;
16957;SDS011;8595;52.542;11.974;2022-08-21T02:39:11;6.75;;;2.88;;
16957;SDS011;8595;52.542;11.974;2022-08-21T02:41:38;6.72;;;2.78;;
16957;SDS011;8595;52.542;11.974;2022-08-21T02:44:04;8.55;;;2.72;;
16957;SDS011;8595;52.542;11.974;2022-08-21T02:46:31;5.57;;;2.65;;
16957;SDS011;8595;52.542;11.974;2022-08-21T02:48:59;5.78;;;3.00;;
16957;SDS011;8595;52.542;11.974;2022-08-21T02:51:25;5.47;;;2.72;;
16957;SDS011;8595;52.542;11.974;2022-08-21T02:53:52;6.68;;;3.10;;
16957;SDS011;8595;52.542;11.974;2022-08-21T02:56:20;7.20;;;3.08;;
16957;SDS011;8595;52.542;11.974;2022-08-21T02:58:48;8.63;;;3.10;;
16957;SDS011;8595;52.542;11.974;2022-08-21T03:01:16;5.45;;;3.28;;
16957;SDS011;8595;52.542;11.974;2022-08-21T03:03:44;8.18;;;3.40;;
16957;SDS011;8595;52.542;11.974;2022-08-21T03:06:16;7.22;;;3.08;;
16957;SDS011;8595;52.542;11.974;2022-08-21T03:08:44;4.43;;;2.80;;
16957;SDS011;8595;52.542;11.974;2022-08-21T03:11:11;6.93;;;3.42;;
16957;SDS011;8595;52.542;11.974;2022-08-21T03:13:39;4.65;;;2.58;;
16957;SDS011;8595;52.542;11.974;2022-08-21T03:16:06;5.70;;;2.97;;
16957;SDS011;8595;52.542;11.974;2022-08-21T03:18:33;9.05;;;2.90;;
16957;SDS011;8595;52.542;11.974;2022-08-21T03:21:00;8.40;;;3.10;;
16957;SDS011;8595;52.542;11.974;2022-08-21T03:23:28;10.82;;;3.17;;
16957;SDS011;8595;52.542;11.974;2022-08-21T03:25:56;6.93;;;3.10;;
16957;SDS011;8595;52.542;11.974;2022-08-21T03:28:22;6.70;;;3.22;;
16957;SDS011;8595;52.542;11.974;2022-08-21T03:30:50;6.25;;;3.05;;
16957;SDS011;8595;52.542;11.974;2022-08-21T03:33:18;6.32;;;3.38;;
16957;SDS011;8595;52.542;11.974;2022-08-21T03:35:47;5.95;;;3.08;;
16957;SDS011;8595;52.542;11.974;2022-08-21T03:38:17;8.75;;;3.20;;
16957;SDS011;8595;52.542;11.974;2022-08-21T03:40:46;8.40;;;3.63;;
16957;SDS011;8595;52.542;11.974;2022-08-21T03:43:12;4.53;;;2.83;;
16957;SDS011;8595;52.542;11.974;2022-08-21T03:45:39;6.05;;;3.30;;
16957;SDS011;8595;52.542;11.974;2022-08-21T03:48:06;7.80;;;3.20;;
16957;SDS011;8595;52.542;11.974;2022-08-21T03:50:35;9.43;;;3.20;;
16957;SDS011;8595;52.542;11.974;2022-08-21T03:53:04;7.38;;;2.90;;
16957;SDS011;8595;52.542;11.974;2022-08-21T03:55:31;10.02;;;2.90;;
16957;SDS011;8595;52.542;11.974;2022-08-21T03:57:59;3.45;;;2.67;;
16957;SDS011;8595;52.542;11.974;2022-08-21T04:00:26;5.20;;;2.95;;
16957;SDS011;8595;52.542;11.974;2022-08-21T04:02:53;3.92;;;2.58;;
16957;SDS011;8595;52.542;11.974;2022-08-21T04:05:19;8.25;;;3.15;;
16957;SDS011;8595;52.542;11.974;2022-08-21T04:07:53;11.82;;;3.08;;
16957;SDS011;8595;52.542;11.974;2022-08-21T04:10:21;8.57;;;2.72;;
16957;SDS011;8595;52.542;11.974;2022-08-21T04:12:48;9.20;;;3.33;;
16957;SDS011;8595;52.542;11.974;2022-08-21T04:15:17;5.32;;;2.63;;
16957;SDS011;8595;52.542;11.974;2022-08-21T04:17:44;4.75;;;2.65;;
16957;SDS011;8595;52.542;11.974;2022-08-21T04:20:10;5.03;;;2.88;;
16957;SDS011;8595;52.542;11.974;2022-08-21T04:22:37;4.90;;;3.22;;
16957;SDS011;8595;52.542;11.974;2022-08-21T04:25:04;8.18;;;3.08;;
16957;SDS011;8595;52.542;11.974;2022-08-21T04:27:32;7.07;;;3.22;;
16957;SDS011;8595;52.542;11.974;2022-08-21T04:29:59;6.63;;;3.30;;
16957;SDS011;8595;52.542;11.974;2022-08-21T04:32:28;6.60;;;3.85;;
16957;SDS011;8595;52.542;11.974;2022-08-21T04:34:57;7.40;;;2.90;;
16957;SDS011;8595;52.542;11.974;2022-08-21T04:37:26;6.40;;;2.72;;
16957;SDS011;8595;52.542;11.974;2022-08-21T04:39:53;7.78;;;2.70;;
16957;SDS011;8595;52.542;11.974;2022-08-21T04:42:22;5.30;;;3.10;;
16957;SDS011;8595;52.542;11.974;2022-08-21T04:44:49;9.50;;;3.45;;
16957;SDS011;8595;52.542;11.974;2022-08-21T04:47:16;8.77;;;2.67;;
16957;SDS011;8595;52.542;11.974;2022-08-21T04:49:45;6.50;;;2.53;;
16957;SDS011;8595;52.542;11.974;2022-08-21T04:52:12;4.25;;;2.45;;
16957;SDS011;8595;52.542;11.974;2022-08-21T04:54:42;3.65;;;2.42;;
16957;SDS011;8595;52.542;11.974;2022-08-21T04:57:11;5.40;;;3.13;;
16957;SDS011;8595;52.542;11.974;2022-08-21T04:59:43;6.20;;;2.83;;
16957;SDS011;8595;52.542;11.974;2022-08-21T05:02:13;5.95;;;3.22;;
16957;SDS011;8595;52.542;11.974;2022-08-21T05:04:41;6.72;;;3.17;;
16957;SDS011;8595;52.542;11.974;2022-08-21T05:07:12;5.60;;;2.40;;
16957;SDS011;8595;52.542;11.974;2022-08-21T05:09:43;5.95;;;2.55;;
16957;SDS011;8595;52.542;11.974;2022-08-21T05:12:10;4.53;;;2.72;;
16957;SDS011;8595;52.542;11.974;2022-08-21T05:14:37;2.90;;;2.47;;
16957;SDS011;8595;52.542;11.974;2022-08-21T05:17:03;9.13;;;3.30;;
16957;SDS011;8595;52.542;11.974;2022-08-21T05:19:30;7.45;;;2.90;;
16957;SDS011;8595;52.542;11.974;2022-08-21T05:21:57;8.95;;;3.20;;
16957;SDS011;8595;52.542;11.974;2022-08-21T05:24:25;5.03;;;2.72;;
16957;SDS011;8595;52.542;11.974;2022-08-21T05:26:52;6.72;;;3.15;;
16957;SDS011;8595;52.542;11.974;2022-08-21T05:29:19;6.32;;;2.83;;
16957;SDS011;8595;52.542;11.974;2022-08-21T05:31:46;6.35;;;2.95;;
16957;SDS011;8595;52.542;11.974;2022-08-21T05:34:14;7.43;;;2.90;;
16957;SDS011;8595;52.542;11.974;2022-08-21T05:36:43;5.55;;;3.30;;
16957;SDS011;8595;52.542;11.974;2022-08-21T05:39:10;5.28;;;2.83;;
16957;SDS011;8595;52.542;11.974;2022-08-21T05:41:38;9.27;;;3.90;;
16957;SDS011;8595;52.542;11.974;2022-08-21T05:44:05;6.25;;;3.33;;
16957;SDS011;8595;52.542;11.974;2022-08-21T05:46:32;6.40;;;3.05;;
16957;SDS011;8595;52.542;11.974;2022-08-21T05:48:59;5.75;;;2.88;;
16957;SDS011;8595;52.542;11.974;2022-08-21T05:51:26;4.50;;;2.95;;
16957;SDS011;8595;52.542;11.974;2022-08-21T05:53:52;5.32;;;3.17;;
16957;SDS011;8595;52.542;11.974;2022-08-21T05:56:19;9.43;;;3.70;;
16957;SDS011;8595;52.542;11.974;2022-08-21T05:58:47;6.88;;;3.08;;
16957;SDS011;8595;52.542;11.974;2022-08-21T06:01:14;6.47;;;3.45;;
16957;SDS011;8595;52.542;11.974;2022-08-21T06:03:41;8.98;;;3.65;;
16957;SDS011;8595;52.542;11.974;2022-08-21T06:06:08;5.63;;;3.00;;
16957;SDS011;8595;52.542;11.974;2022-08-21T06:08:35;7.88;;;3.38;;
16957;SDS011;8595;52.542;11.974;2022-08-21T06:11:03;6.22;;;3.00;;
16957;SDS011;8595;52.542;11.974;2022-08-21T06:13:31;6.15;;;3.28;;
16957;SDS011;8595;52.542;11.974;2022-08-21T06:16:07;4.35;;;3.10;;
16957;SDS011;8595;52.542;11.974;2022-08-21T06:18:35;7.43;;;3.08;;
16957;SDS011;8595;52.542;11.974;2022-08-21T06:21:03;5.45;;;3.10;;
16957;SDS011;8595;52.542;11.974;2022-08-21T06:23:31;9.60;;;3.85;;
16957;SDS011;8595;52.542;11.974;2022-08-21T06:25:58;6.90;;;3.20;;
16957;SDS011;8595;52.542;11.974;2022-08-21T06:28:24;4.50;;;3.28;;
16957;SDS011;8595;52.542;11.974;2022-08-21T06:30:51;4.00;;;2.63;;
16957;SDS011;8595;52.542;11.974;2022-08-21T06:33:19;5.10;;;2.88;;
16957;SDS011;8595;52.542;11.974;2022-08-21T06:35:46;5.88;;;3.38;;
16957;SDS011;8595;52.542;11.974;2022-08-21T06:38:13;6.28;;;3.35;;
16957;SDS011;8595;52.542;11.974;2022-08-21T06:40:39;8.10;;;3.65;;
16957;SDS011;8595;52.542;11.974;2022-08-21T06:43:07;5.00;;;3.20;;
16957;SDS011;8595;52.542;11.974;2022-08-21T06:45:36;9.18;;;3.38;;
16957;SDS011;8595;52.542;11.974;2022-08-21T06:48:03;4.82;;;3.20;;
16957;SDS011;8595;52.542;11.974;2022-08-21T06:50:31;6.47;;;3.28;;
16957;SDS011;8595;52.542;11.974;2022-08-21T06:52:59;6.43;;;3.53;;
16957;SDS011;8595;52.542;11.974;2022-08-21T06:55:27;7.15;;;3.80;;
16957;SDS011;8595;52.542;11.974;2022-08-21T06:57:54;7.35;;;3.40;;
16957;SDS011;8595;52.542;11.974;2022-08-21T07:00:20;10.20;;;3.13;;
16957;SDS011;8595;52.542;11.974;2022-08-21T07:02:47;4.68;;;2.83;;
16957;SDS011;8595;52.542;11.974;2022-08-21T07:05:14;8.10;;;3.60;;
16957;SDS011;8595;52.542;11.974;2022-08-21T07:07:42;7.38;;;2.78;;
16957;SDS011;8595;52.542;11.974;2022-08-21T07:10:09;5.60;;;3.17;;
16957;SDS011;8595;52.542;11.974;2022-08-21T07:12:36;8.43;;;2.58;;
16957;SDS011;8595;52.542;11.974;2022-08-21T07:15:03;6.20;;;2.88;;
16957;SDS011;8595;52.542;11.974;2022-08-21T07:17:30;6.30;;;2.90;;
16957;SDS011;8595;52.542;11.974;2022-08-21T07:19:57;5.88;;;2.60;;
16957;SDS011;8595;52.542;11.974;2022-08-21T07:22:23;5.28;;;2.72;;
16957;SDS011;8595;52.542;11.974;2022-08-21T07:24:53;4.82;;;2.20;;
16957;SDS011;8595;52.542;11.974;2022-08-21T07:27:20;4.35;;;2.17;;
16957;SDS011;8595;52.542;11.974;2022-08-21T07:29:47;5.85;;;2.60;;
16957;SDS011;8595;52.542;11.974;2022-08-21T07:32:14;5.90;;;2.22;;
16957;SDS011;8595;52.542;11.974;2022-08-21T07:34:41;4.20;;;2.28;;
16957;SDS011;8595;52.542;11.974;2022-08-21T07:37:08;3.33;;;1.73;;
16957;SDS011;8595;52.542;11.974;2022-08-21T07:39:34;3.70;;;1.75;;
16957;SDS011;8595;52.542;11.974;2022-08-21T07:42:02;5.88;;;2.05;;
16957;SDS011;8595;52.542;11.974;2022-08-21T07:44:29;5.57;;;2.10;;
16957;SDS011;8595;52.542;11.974;2022-08-21T07:46:56;6.10;;;1.98;;
16957;SDS011;8595;52.542;11.974;2022-08-21T07:49:23;4.05;;;1.60;;
16957;SDS011;8595;52.542;11.974;2022-08-21T07:51:50;5.55;;;2.30;;
16957;SDS011;8595;52.542;11.974;2022-08-21T07:54:16;2.45;;;1.60;;
16957;SDS011;8595;52.542;11.974;2022-08-21T07:56:43;3.35;;;1.70;;
16957;SDS011;8595;52.542;11.974;2022-08-21T07:59:11;8.15;;;2.17;;
16957;SDS011;8595;52.542;11.974;2022-08-21T08:01:38;3.90;;;1.60;;
16957;SDS011;8595;52.542;11.974;2022-08-21T08:04:05;3.97;;;1.58;;
16957;SDS011;8595;52.542;11.974;2022-08-21T08:06:32;3.88;;;1.30;;
16957;SDS011;8595;52.542;11.974;2022-08-21T08:08:59;3.55;;;1.60;;
16957;SDS011;8595;52.542;11.974;2022-08-21T08:11:27;2.58;;;1.45;;
16957;SDS011;8595;52.542;11.974;2022-08-21T08:13:54;4.40;;;1.85;;
16957;SDS011;8595;52.542;11.974;2022-08-21T08:16:23;6.07;;;1.63;;
16957;SDS011;8595;52.542;11.974;2022-08-21T08:18:50;3.53;;;1.50;;
16957;SDS011;8595;52.542;11.974;2022-08-21T08:21:17;5.05;;;1.90;;
16957;SDS011;8595;52.542;11.974;2022-08-21T08:23:45;5.40;;;1.67;;
16957;SDS011;8595;52.542;11.974;2022-08-21T08:26:12;3.42;;;1.83;;
16957;SDS011;8595;52.542;11.974;2022-08-21T08:28:40;3.45;;;1.52;;
16957;SDS011;8595;52.542;11.974;2022-08-21T08:31:07;5.05;;;1.92;;
16957;SDS011;8595;52.542;11.974;2022-08-21T08:33:35;3.28;;;1.63;;
16957;SDS011;8595;52.542;11.974;2022-08-21T08:36:01;3.55;;;1.65;;
16957;SDS011;8595;52.542;11.974;2022-08-21T08:38:29;3.47;;;1.83;;
16957;SDS011;8595;52.542;11.974;2022-08-21T08:41:07;4.75;;;1.50;;
16957;SDS011;8595;52.542;11.974;2022-08-21T08:43:38;4.38;;;1.95;;
16957;SDS011;8595;52.542;11.974;2022-08-21T08:46:09;5.22;;;1.67;;
16957;SDS011;8595;52.542;11.974;2022-08-21T08:48:44;3.28;;;1.55;;
16957;SDS011;8595;52.542;11.974;2022-08-21T08:51:18;3.85;;;1.40;;
16957;SDS011;8595;52.542;11.974;2022-08-21T08:53:50;5.30;;;1.90;;
16957;SDS011;8595;52.542;11.974;2022-08-21T08:56:21;5.68;;;2.45;;
16957;SDS011;8595;52.542;11.974;2022-08-21T08:58:53;5.93;;;1.77;;
16957;SDS011;8595;52.542;11.974;2022-08-21T09:01:25;9.73;;;4.95;;
16957;SDS011;8595;52.542;11.974;2022-08-21T09:03:53;4.47;;;1.73;;
16957;SDS011;8595;52.542;11.974;2022-08-21T09:06:23;6.82;;;2.35;;
16957;SDS011;8595;52.542;11.974;2022-08-21T09:09:01;7.75;;;2.25;;
16957;SDS011;8595;52.542;11.974;2022-08-21T09:11:36;4.72;;;1.90;;
16957;SDS011;8595;52.542;11.974;2022-08-21T09:14:12;7.05;;;2.10;;
16957;SDS011;8595;52.542;11.974;2022-08-21T09:16:46;5.22;;;1.58;;
16957;SDS011;8595;52.542;11.974;2022-08-21T09:19:21;5.35;;;1.90;;
16957;SDS011;8595;52.542;11.974;2022-08-21T09:22:01;4.80;;;1.98;;
16957;SDS011;8595;52.542;11.974;2022-08-21T09:24:47;2.83;;;1.40;;
16957;SDS011;8595;52.542;11.974;2022-08-21T09:27:20;3.53;;;1.63;;
16957;SDS011;8595;52.542;11.974;2022-08-21T09:29:49;5.82;;;2.15;;
16957;SDS011;8595;52.542;11.974;2022-08-21T09:32:19;5.47;;;1.92;;
16957;SDS011;8595;52.542;11.974;2022-08-21T09:34:59;4.40;;;1.83;;
16957;SDS011;8595;52.542;11.974;2022-08-21T09:37:29;4.65;;;1.70;;
16957;SDS011;8595;52.542;11.974;2022-08-21T09:39:59;7.15;;;1.60;;
16957;SDS011;8595;52.542;11.974;2022-08-21T09:42:27;8.80;;;1.65;;
16957;SDS011;8595;52.542;11.974;2022-08-21T09:45:10;8.23;;;2.00;;
16957;SDS011;8595;52.542;11.974;2022-08-21T09:47:39;4.80;;;1.67;;
16957;SDS011;8595;52.542;11.974;2022-08-21T09:50:11;5.13;;;1.42;;
16957;SDS011;8595;52.542;11.974;2022-08-21T09:52:43;3.85;;;1.77;;
16957;SDS011;8595;52.542;11.974;2022-08-21T09:55:16;6.60;;;1.83;;
16957;SDS011;8595;52.542;11.974;2022-08-21T09:58:04;5.78;;;2.25;;
16957;SDS011;8595;52.542;11.974;2022-08-21T10:00:32;6.25;;;1.75;;
16957;SDS011;8595;52.542;11.974;2022-08-21T10:03:15;6.70;;;1.92;;
16957;SDS011;8595;52.542;11.974;2022-08-21T10:05:53;6.55;;;1.58;;
16957;SDS011;8595;52.542;11.974;2022-08-21T10:08:23;11.82;;;3.13;;
16957;SDS011;8595;52.542;11.974;2022-08-21T10:10:52;7.13;;;2.67;;
16957;SDS011;8595;52.542;11.974;2022-08-21T10:13:25;6.00;;;2.08;;
16957;SDS011;8595;52.542;11.974;2022-08-21T10:16:11;6.53;;;1.92;;
16957;SDS011;8595;52.542;11.974;2022-08-21T10:18:46;4.47;;;2.10;;
16957;SDS011;8595;52.542;11.974;2022-08-21T10:21:23;10.88;;;2.67;;
16957;SDS011;8595;52.542;11.974;2022-08-21T10:24:00;6.30;;;1.77;;
16957;SDS011;8595;52.542;11.974;2022-08-21T10:26:37;5.45;;;1.92;;
16957;SDS011;8595;52.542;11.974;2022-08-21T10:29:21;7.75;;;2.08;;
16957;SDS011;8595;52.542;11.974;2022-08-21T10:32:00;6.95;;;2.10;;
16957;SDS011;8595;52.542;11.974;2022-08-21T10:34:34;3.35;;;1.65;;
16957;SDS011;8595;52.542;11.974;2022-08-21T10:37:13;2.60;;;1.50;;
16957;SDS011;8595;52.542;11.974;2022-08-21T10:39:55;5.47;;;1.98;;
16957;SDS011;8595;52.542;11.974;2022-08-21T10:42:33;7.35;;;1.67;;
16957;SDS011;8595;52.542;11.974;2022-08-21T10:45:08;4.38;;;1.83;;
16957;SDS011;8595;52.542;11.974;2022-08-21T10:47:42;5.80;;;1.90;;
16957;SDS011;8595;52.542;11.974;2022-08-21T10:50:17;4.70;;;1.90;;
16957;SDS011;8595;52.542;11.974;2022-08-21T10:53:00;5.95;;;1.88;;
16957;SDS011;8595;52.542;11.974;2022-08-21T10:55:43;6.07;;;1.98;;
16957;SDS011;8595;52.542;11.974;2022-08-21T10:58:14;7.25;;;1.90;;
16957;SDS011;8595;52.542;11.974;2022-08-21T11:00:49;4.90;;;2.17;;
16957;SDS011;8595;52.542;11.974;2022-08-21T11:03:21;4.72;;;2.20;;
16957;SDS011;8595;52.542;11.974;2022-08-21T11:05:54;4.65;;;2.15;;
16957;SDS011;8595;52.542;11.974;2022-08-21T11:08:28;4.60;;;2.08;;
16957;SDS011;8595;52.542;11.974;2022-08-21T11:10:58;6.43;;;2.17;;
16957;SDS011;8595;52.542;11.974;2022-08-21T11:13:30;5.55;;;1.88;;
16957;SDS011;8595;52.542;11.974;2022-08-21T11:16:05;7.03;;;2.38;;
16957;SDS011;8595;52.542;11.974;2022-08-21T11:18:36;4.80;;;2.15;;
16957;SDS011;8595;52.542;11.974;2022-08-21T11:21:09;5.28;;;2.00;;
16957;SDS011;8595;52.542;11.974;2022-08-21T11:23:54;12.48;;;3.13;;
16957;SDS011;8595;52.542;11.974;2022-08-21T11:26:29;5.68;;;1.85;;
16957;SDS011;8595;52.542;11.974;2022-08-21T11:29:02;6.50;;;1.85;;
16957;SDS011;8595;52.542;11.974;2022-08-21T11:31:36;4.65;;;2.13;;
16957;SDS011;8595;52.542;11.974;2022-08-21T11:34:18;3.85;;;1.70;;
16957;SDS011;8595;52.542;11.974;2022-08-21T11:36:55;3.33;;;1.90;;
16957;SDS011;8595;52.542;11.974;2022-08-21T11:39:30;6.07;;;2.10;;
16957;SDS011;8595;52.542;11.974;2022-08-21T11:42:06;4.57;;;1.80;;
16957;SDS011;8595;52.542;11.974;2022-08-21T11:44:47;9.50;;;2.15;;
16957;SDS011;8595;52.542;11.974;2022-08-21T11:47:19;5.93;;;1.80;;
16957;SDS011;8595;52.542;11.974;2022-08-21T11:49:58;4.75;;;1.85;;
16957;SDS011;8595;52.542;11.974;2022-08-21T11:52:38;6.93;;;2.17;;
16957;SDS011;8595;52.542;11.974;2022-08-21T11:55:09;5.18;;;2.20;;
16957;SDS011;8595;52.542;11.974;2022-08-21T11:57:44;3.67;;;2.05;;
16957;SDS011;8595;52.542;11.974;2022-08-21T12:00:20;9.80;;;2.30;;
16957;SDS011;8595;52.542;11.974;2022-08-21T12:02:51;6.68;;;2.13;;
16957;SDS011;8595;52.542;11.974;2022-08-21T12:05:27;5.40;;;2.10;;
16957;SDS011;8595;52.542;11.974;2022-08-21T12:08:01;7.57;;;2.03;;
16957;SDS011;8595;52.542;11.974;2022-08-21T12:10:33;4.00;;;1.60;;
16957;SDS011;8595;52.542;11.974;2022-08-21T12:13:06;4.10;;;1.85;;
16957;SDS011;8595;52.542;11.974;2022-08-21T12:15:36;4.65;;;1.88;;
16957;SDS011;8595;52.542;11.974;2022-08-21T12:18:04;6.65;;;2.10;;
16957;SDS011;8595;52.542;11.974;2022-08-21T12:20:35;4.50;;;2.10;;
16957;SDS011;8595;52.542;11.974;2022-08-21T12:23:05;3.95;;;1.40;;
16957;SDS011;8595;52.542;11.974;2022-08-21T12:25:44;7.85;;;2.10;;
16957;SDS011;8595;52.542;11.974;2022-08-21T12:28:15;4.45;;;1.98;;
16957;SDS011;8595;52.542;11.974;2022-08-21T12:30:49;5.95;;;2.22;;
16957;SDS011;8595;52.542;11.974;2022-08-21T12:33:20;4.80;;;2.00;;
16957;SDS011;8595;52.542;11.974;2022-08-21T12:35:50;4.13;;;1.80;;
16957;SDS011;8595;52.542;11.974;2022-08-21T12:38:20;7.80;;;2.13;;
16957;SDS011;8595;52.542;11.974;2022-08-21T12:40:52;6.65;;;2.00;;
16957;SDS011;8595;52.542;11.974;2022-08-21T12:43:24;5.75;;;1.50;;
16957;SDS011;8595;52.542;11.974;2022-08-21T12:45:55;5.70;;;1.83;;
16957;SDS011;8595;52.542;11.974;2022-08-21T12:48:25;5.57;;;2.03;;
16957;SDS011;8595;52.542;11.974;2022-08-21T12:50:58;7.25;;;2.08;;
16957;SDS011;8595;52.542;11.974;2022-08-21T12:53:35;4.78;;;1.70;;
16957;SDS011;8595;52.542;11.974;2022-08-21T12:56:09;6.57;;;2.15;;
16957;SDS011;8595;52.542;11.974;2022-08-21T12:58:39;4.90;;;1.50;;
16957;SDS011;8595;52.542;11.974;2022-08-21T13:01:12;8.18;;;1.85;;
16957;SDS011;8595;52.542;11.974;2022-08-21T13:03:43;3.05;;;1.80;;
16957;SDS011;8595;52.542;11.974;2022-08-21T13:06:12;5.60;;;1.95;;
16957;SDS011;8595;52.542;11.974;2022-08-21T13:08:42;7.43;;;2.05;;
16957;SDS011;8595;52.542;11.974;2022-08-21T13:11:12;10.30;;;2.67;;
16957;SDS011;8595;52.542;11.974;2022-08-21T13:13:42;5.07;;;1.60;;
16957;SDS011;8595;52.542;11.974;2022-08-21T13:16:09;6.13;;;2.15;;
16957;SDS011;8595;52.542;11.974;2022-08-21T13:18:39;4.93;;;1.85;;
16957;SDS011;8595;52.542;11.974;2022-08-21T13:21:19;5.15;;;2.13;;
16957;SDS011;8595;52.542;11.974;2022-08-21T13:23:46;5.60;;;2.28;;
16957;SDS011;8595;52.542;11.974;2022-08-21T13:26:14;6.38;;;1.63;;
16957;SDS011;8595;52.542;11.974;2022-08-21T13:28:42;4.78;;;2.10;;
16957;SDS011;8595;52.542;11.974;2022-08-21T13:31:12;4.22;;;1.88;;
16957;SDS011;8595;52.542;11.974;2022-08-21T13:33:42;3.97;;;1.85;;
16957;SDS011;8595;52.542;11.974;2022-08-21T13:36:11;5.03;;;1.48;;
16957;SDS011;8595;52.542;11.974;2022-08-21T13:38:43;6.72;;;2.22;;
16957;SDS011;8595;52.542;11.974;2022-08-21T13:41:19;4.13;;;1.77;;
16957;SDS011;8595;52.542;11.974;2022-08-21T13:43:49;5.97;;;1.77;;
16957;SDS011;8595;52.542;11.974;2022-08-21T13:46:22;6.28;;;1.83;;
16957;SDS011;8595;52.542;11.974;2022-08-21T13:48:52;6.13;;;2.13;;
16957;SDS011;8595;52.542;11.974;2022-08-21T13:51:20;4.40;;;2.00;;
16957;SDS011;8595;52.542;11.974;2022-08-21T13:53:47;3.80;;;1.70;;
16957;SDS011;8595;52.542;11.974;2022-08-21T13:56:26;4.80;;;1.77;;
16957;SDS011;8595;52.542;11.974;2022-08-21T13:58:55;5.03;;;1.95;;
16957;SDS011;8595;52.542;11.974;2022-08-21T14:01:26;4.88;;;2.05;;
16957;SDS011;8595;52.542;11.974;2022-08-21T14:03:55;11.15;;;1.88;;
16957;SDS011;8595;52.542;11.974;2022-08-21T14:06:27;4.05;;;1.80;;
16957;SDS011;8595;52.542;11.974;2022-08-21T14:08:59;3.17;;;1.70;;
16957;SDS011;8595;52.542;11.974;2022-08-21T14:11:32;5.85;;;2.05;;
16957;SDS011;8595;52.542;11.974;2022-08-21T14:14:01;5.63;;;2.20;;
16957;SDS011;8595;52.542;11.974;2022-08-21T14:16:41;6.78;;;2.08;;
16957;SDS011;8595;52.542;11.974;2022-08-21T14:19:11;7.82;;;1.92;;
16957;SDS011;8595;52.542;11.974;2022-08-21T14:21:45;5.88;;;2.10;;
16957;SDS011;8595;52.542;11.974;2022-08-21T14:24:13;4.28;;;2.00;;
16957;SDS011;8595;52.542;11.974;2022-08-21T14:26:53;3.55;;;1.70;;
16957;SDS011;8595;52.542;11.974;2022-08-21T14:29:24;5.28;;;2.30;;
16957;SDS011;8595;52.542;11.974;2022-08-21T14:31:53;5.10;;;1.80;;
16957;SDS011;8595;52.542;11.974;2022-08-21T14:34:21;4.25;;;1.95;;
16957;SDS011;8595;52.542;11.974;2022-08-21T14:36:48;8.60;;;2.40;;
16957;SDS011;8595;52.542;11.974;2022-08-21T14:39:15;4.13;;;1.83;;
16957;SDS011;8595;52.542;11.974;2022-08-21T14:41:43;4.32;;;1.83;;
16957;SDS011;8595;52.542;11.974;2022-08-21T14:44:15;2.92;;;1.70;;
16957;SDS011;8595;52.542;11.974;2022-08-21T14:46:43;2.72;;;1.75;;
16957;SDS011;8595;52.542;11.974;2022-08-21T14:49:11;3.75;;;2.03;;
16957;SDS011;8595;52.542;11.974;2022-08-21T14:51:38;6.13;;;1.90;;
16957;SDS011;8595;52.542;11.974;2022-08-21T14:54:05;4.40;;;2.10;;
16957;SDS011;8595;52.542;11.974;2022-08-21T14:56:32;4.03;;;1.80;;
16957;SDS011;8595;52.542;11.974;2022-08-21T14:59:00;2.72;;;1.40;;
16957;SDS011;8595;52.542;11.974;2022-08-21T15:01:30;5.07;;;1.63;;
16957;SDS011;8595;52.542;11.974;2022-08-21T15:04:00;3.28;;;1.85;;